Time;durP1;ratioP1;P1;durP2;ratioP2;P2;SDS_P1;SDS_P2;PMS_P1;PMS_P2;Temp;Humidity;BMP_temperature;BMP_pressure;BME280_temperature;BME280_humidity;BME280_pressure;Samples;Min_cycle;Max_cycle;Signal;HPM_P1;HPM_P2
2023/08/18 00:01:30;;;;;;;6.30;4.00;;;17.10;88.40;;;;;;5075067;28;20080;-80
2023/08/18 00:03:56;;;;;;;7.45;4.20;;;17.10;88.30;;;;;;5074953;28;20402;-80
2023/08/18 00:06:22;;;;;;;4.68;3.67;;;17.10;88.20;;;;;;5074905;28;20076;-80
2023/08/18 00:08:48;;;;;;;4.50;3.53;;;17.10;88.10;;;;;;5091830;28;20040;-78
2023/08/18 00:11:14;;;;;;;11.77;4.55;;;17.10;88.00;;;;;;5074874;28;20047;-80
2023/08/18 00:13:39;;;;;;;4.25;3.65;;;17.00;88.00;;;;;;5091843;28;20043;-80
2023/08/18 00:16:05;;;;;;;5.78;4.55;;;17.00;88.00;;;;;;5061958;28;20040;-81
2023/08/18 00:18:31;;;;;;;6.07;5.47;;;17.00;88.10;;;;;;5078992;28;20085;-80
2023/08/18 00:20:56;;;;;;;7.88;4.97;;;17.00;88.10;;;;;;5079012;28;20040;-80
2023/08/18 00:23:23;;;;;;;6.28;5.00;;;17.00;88.10;;;;;;5095719;28;20040;-81
2023/08/18 00:25:49;;;;;;;9.98;6.03;;;17.00;88.20;;;;;;5095798;28;20036;-81
2023/08/18 00:28:15;;;;;;;9.98;6.00;;;17.00;88.20;;;;;;5060407;28;20051;-82
2023/08/18 00:30:41;;;;;;;7.63;6.18;;;16.90;88.30;;;;;;5076731;28;20051;-80
2023/08/18 00:33:06;;;;;;;6.97;5.53;;;16.90;88.20;;;;;;5077101;28;20040;-80
2023/08/18 00:35:33;;;;;;;7.50;5.53;;;16.80;88.20;;;;;;5077450;28;20480;-80
2023/08/18 00:37:58;;;;;;;8.48;5.80;;;16.80;88.30;;;;;;5076967;28;20040;-80
2023/08/18 00:40:24;;;;;;;7.28;6.47;;;16.70;88.30;;;;;;5094337;28;20077;-82
2023/08/18 00:42:50;;;;;;;6.45;5.90;;;16.70;88.40;;;;;;5077376;28;20067;-81
2023/08/18 00:45:16;;;;;;;7.70;6.97;;;16.60;88.60;;;;;;5078087;28;20055;-82
2023/08/18 00:47:43;;;;;;;8.68;7.25;;;16.70;88.60;;;;;;5095173;28;20032;-81
2023/08/18 00:50:11;;;;;;;7.40;6.70;;;16.60;88.60;;;;;;5078033;28;20502;-79
2023/08/18 00:52:42;;;;;;;9.65;6.70;;;16.60;88.60;;;;;;5095097;28;20127;-80
2023/08/18 00:55:09;;;;;;;7.30;6.60;;;16.50;88.80;;;;;;5094924;28;20044;-82
2023/08/18 00:57:36;;;;;;;7.95;6.97;;;16.50;88.90;;;;;;5044814;28;20040;-81
2023/08/18 01:00:02;;;;;;;7.20;6.43;;;16.60;89.00;;;;;;5095130;28;20048;-78
2023/08/18 01:02:28;;;;;;;8.25;7.40;;;16.60;89.00;;;;;;5078140;28;20442;-79
2023/08/18 01:05:00;;;;;;;7.38;6.72;;;16.60;89.00;;;;;;5078094;28;20446;-81
2023/08/18 01:07:26;;;;;;;7.65;6.88;;;16.60;89.10;;;;;;5094844;28;20396;-82
2023/08/18 01:09:53;;;;;;;8.05;7.03;;;16.70;89.00;;;;;;5061092;28;20040;-80
2023/08/18 01:12:34;;;;;;;7.40;6.70;;;16.60;88.90;;;;;;5094451;28;20055;-81
2023/08/18 01:15:16;;;;;;;8.07;6.78;;;16.70;89.10;;;;;;5094877;28;20043;-81
2023/08/18 01:17:51;;;;;;;7.40;6.60;;;16.70;89.10;;;;;;5094434;28;20439;-81
2023/08/18 01:20:18;;;;;;;8.38;6.60;;;16.70;89.10;;;;;;5077531;28;20072;-80
2023/08/18 01:22:45;;;;;;;6.38;5.45;;;16.70;89.00;;;;;;5077588;28;20611;-81
2023/08/18 01:25:11;;;;;;;6.97;5.80;;;16.70;89.20;;;;;;5077735;28;20050;-80
2023/08/18 01:27:37;;;;;;;10.18;6.45;;;16.70;89.20;;;;;;5076469;28;20052;-80
2023/08/18 01:30:04;;;;;;;6.10;5.50;;;16.70;89.10;;;;;;5077358;28;20518;-81
2023/08/18 01:32:39;;;;;;;9.45;6.07;;;16.70;89.30;;;;;;5043961;28;20128;-81
2023/08/18 01:35:06;;;;;;;7.95;6.35;;;16.70;89.30;;;;;;5094390;28;20193;-80
2023/08/18 01:37:33;;;;;;;6.25;5.43;;;16.70;89.30;;;;;;5060794;28;20361;-82
2023/08/18 01:40:00;;;;;;;7.63;5.82;;;16.70;89.30;;;;;;5093949;28;20035;-79
2023/08/18 01:42:27;;;;;;;6.25;5.65;;;16.70;89.30;;;;;;5093715;28;20064;-79
2023/08/18 01:45:00;;;;;;;5.75;5.22;;;16.70;89.30;;;;;;5077345;28;20048;-80
2023/08/18 01:47:26;;;;;;;7.03;5.63;;;16.60;89.40;;;;;;5093861;28;20044;-80
2023/08/18 01:49:51;;;;;;;6.07;5.07;;;16.60;89.50;;;;;;5076953;28;20036;-80
2023/08/18 01:52:17;;;;;;;7.90;6.18;;;16.60;89.50;;;;;;5093858;28;20036;-82
2023/08/18 01:54:43;;;;;;;6.00;4.90;;;16.50;89.40;;;;;;5076832;28;20066;-81
2023/08/18 01:57:08;;;;;;;6.30;5.20;;;16.50;89.30;;;;;;5093615;28;20040;-79
2023/08/18 01:59:34;;;;;;;6.43;5.55;;;16.40;89.30;;;;;;5060519;28;20085;-80
2023/08/18 02:02:00;;;;;;;5.53;4.93;;;16.40;89.30;;;;;;5043480;28;20495;-81
2023/08/18 02:04:25;;;;;;;7.22;5.07;;;16.40;89.30;;;;;;5043391;28;20044;-80
2023/08/18 02:06:51;;;;;;;5.40;4.90;;;16.30;89.30;;;;;;5076608;28;20075;-81
2023/08/18 02:09:17;;;;;;;5.72;4.90;;;16.30;89.30;;;;;;5076619;28;20050;-80
2023/08/18 02:11:42;;;;;;;5.72;4.70;;;16.20;89.30;;;;;;5059912;28;20036;-81
2023/08/18 02:14:08;;;;;;;5.05;4.40;;;16.20;89.30;;;;;;5093282;28;20476;-81
2023/08/18 02:16:34;;;;;;;10.60;5.70;;;16.20;89.30;;;;;;5093212;28;20036;-79
2023/08/18 02:18:59;;;;;;;4.97;4.47;;;16.20;89.30;;;;;;5059767;28;20093;-80
2023/08/18 02:21:25;;;;;;;5.53;5.03;;;16.20;89.30;;;;;;5093148;28;20043;-80
2023/08/18 02:23:51;;;;;;;6.20;5.10;;;16.10;89.30;;;;;;5093413;28;20036;-80
2023/08/18 02:26:16;;;;;;;6.47;5.25;;;16.20;89.30;;;;;;5076475;28;20484;-81
2023/08/18 02:28:42;;;;;;;8.57;5.60;;;16.20;89.30;;;;;;5093013;28;20503;-79
2023/08/18 02:31:10;;;;;;;5.78;5.05;;;16.20;89.40;;;;;;5093029;28;20076;-79
2023/08/18 02:33:36;;;;;;;6.28;4.95;;;16.10;89.50;;;;;;5093127;28;20048;-80
2023/08/18 02:36:02;;;;;;;5.15;4.53;;;16.10;89.50;;;;;;5093270;28;20046;-80
2023/08/18 02:38:29;;;;;;;5.15;3.80;;;16.10;89.40;;;;;;5075634;28;20036;-80
2023/08/18 02:40:55;;;;;;;6.15;5.55;;;16.10;89.40;;;;;;5076265;28;20333;-81
2023/08/18 02:43:24;;;;;;;5.47;4.97;;;16.10;89.40;;;;;;5075789;28;20086;-78
2023/08/18 02:45:57;;;;;;;5.88;5.28;;;16.10;89.50;;;;;;5092971;28;20046;-80
2023/08/18 02:48:28;;;;;;;6.53;5.13;;;16.10;89.40;;;;;;5092631;28;20480;-81
2023/08/18 02:51:04;;;;;;;7.07;5.68;;;16.10;89.50;;;;;;5076105;28;20392;-80
2023/08/18 02:53:30;;;;;;;7.35;5.88;;;16.10;89.60;;;;;;5075685;28;20052;-81
2023/08/18 02:55:55;;;;;;;6.90;6.13;;;16.10;89.60;;;;;;5075684;28;20040;-80
2023/08/18 02:58:22;;;;;;;6.70;5.75;;;16.10;89.70;;;;;;5075774;28;20089;-81
2023/08/18 03:00:47;;;;;;;7.22;5.38;;;16.10;89.70;;;;;;5092394;28;20089;-80
2023/08/18 03:03:13;;;;;;;7.30;5.93;;;16.00;89.70;;;;;;5075515;28;20044;-80
2023/08/18 03:05:39;;;;;;;7.72;5.53;;;16.00;89.80;;;;;;5075521;28;20052;-81
2023/08/18 03:08:05;;;;;;;6.60;6.00;;;16.00;89.80;;;;;;5092249;28;20044;-81
2023/08/18 03:10:31;;;;;;;6.82;5.85;;;16.10;89.70;;;;;;5042348;28;20046;-80
2023/08/18 03:12:56;;;;;;;6.78;5.55;;;16.00;89.80;;;;;;5075430;28;20051;-80
2023/08/18 03:15:22;;;;;;;7.05;5.93;;;16.00;89.90;;;;;;5075351;28;20123;-81
2023/08/18 03:17:49;;;;;;;6.95;5.88;;;16.10;89.80;;;;;;5075316;28;20097;-80
2023/08/18 03:20:15;;;;;;;7.03;5.68;;;16.00;89.90;;;;;;5092432;28;20373;-80
2023/08/18 03:22:40;;;;;;;8.20;6.05;;;16.10;89.90;;;;;;5075196;28;20051;-81
2023/08/18 03:25:07;;;;;;;7.10;5.80;;;16.10;89.90;;;;;;5092009;28;20040;-80
2023/08/18 03:27:33;;;;;;;6.72;5.78;;;16.10;89.90;;;;;;5075101;28;20044;-80
2023/08/18 03:29:58;;;;;;;8.00;5.90;;;16.10;89.90;;;;;;5058863;28;20032;-80
2023/08/18 03:32:25;;;;;;;6.25;5.72;;;16.10;90.00;;;;;;5092027;28;20511;-80
2023/08/18 03:34:54;;;;;;;6.60;5.85;;;16.10;90.00;;;;;;5075235;28;20035;-81
2023/08/18 03:37:20;;;;;;;6.50;5.85;;;16.10;90.00;;;;;;5075074;28;20043;-80
2023/08/18 03:39:46;;;;;;;10.20;6.65;;;16.00;90.00;;;;;;5075230;28;20119;-80
2023/08/18 03:42:11;;;;;;;7.03;5.95;;;16.10;90.00;;;;;;5074892;28;20151;-80
2023/08/18 03:44:37;;;;;;;7.93;6.03;;;16.00;89.90;;;;;;5058585;28;20087;-80
2023/08/18 03:47:03;;;;;;;6.10;5.50;;;16.10;90.00;;;;;;5091745;28;20508;-80
2023/08/18 03:49:29;;;;;;;9.80;6.10;;;16.00;90.10;;;;;;5074260;28;20051;-79
2023/08/18 03:51:55;;;;;;;7.07;5.63;;;16.00;90.20;;;;;;5074899;28;20052;-80
2023/08/18 03:54:21;;;;;;;7.18;6.47;;;16.00;90.20;;;;;;5075203;28;20058;-81
2023/08/18 03:56:47;;;;;;;7.07;6.28;;;16.10;90.30;;;;;;5091663;28;20488;-81
2023/08/18 03:59:13;;;;;;;6.20;5.60;;;16.10;90.30;;;;;;5058260;28;20082;-80
2023/08/18 04:01:38;;;;;;;9.48;6.60;;;16.10;90.40;;;;;;5058226;28;20062;-79
2023/08/18 04:04:04;;;;;;;5.95;5.35;;;16.10;90.30;;;;;;5092158;28;20048;-80
2023/08/18 04:06:30;;;;;;;7.32;6.63;;;16.10;90.10;;;;;;5091861;28;20050;-81
2023/08/18 04:09:06;;;;;;;12.68;6.90;;;16.10;90.10;;;;;;5075074;28;20412;-80
2023/08/18 04:11:34;;;;;;;7.75;5.28;;;16.20;90.10;;;;;;5091696;28;22035;-80
2023/08/18 04:14:00;;;;;;;6.43;5.47;;;16.20;90.10;;;;;;5074925;28;20118;-80
2023/08/18 04:16:26;;;;;;;8.15;7.35;;;16.20;90.10;;;;;;5091522;28;20040;-81
2023/08/18 04:18:52;;;;;;;9.30;7.38;;;16.20;90.10;;;;;;5091706;28;20047;-81
2023/08/18 04:21:18;;;;;;;7.78;6.50;;;16.20;90.20;;;;;;5091714;28;20516;-80
2023/08/18 04:23:43;;;;;;;7.53;6.78;;;16.20;90.10;;;;;;5091451;28;20480;-79
2023/08/18 04:26:12;;;;;;;6.00;5.28;;;16.20;90.10;;;;;;5057758;28;20036;-82
2023/08/18 04:28:38;;;;;;;6.80;6.10;;;16.20;90.10;;;;;;5057746;28;20068;-79
2023/08/18 04:31:03;;;;;;;7.97;7.18;;;16.20;90.20;;;;;;5074440;28;20044;-80
2023/08/18 04:33:29;;;;;;;9.70;6.97;;;16.20;90.20;;;;;;5090706;28;20472;-80
2023/08/18 04:35:55;;;;;;;8.55;6.63;;;16.20;90.30;;;;;;5090663;28;20040;-80
2023/08/18 04:38:21;;;;;;;9.70;6.97;;;16.30;90.30;;;;;;5073947;28;20036;-80
2023/08/18 04:40:59;;;;;;;9.07;7.07;;;16.20;90.20;;;;;;5091180;28;20036;-81
2023/08/18 04:43:26;;;;;;;10.38;6.93;;;16.30;90.20;;;;;;5091098;28;20068;-77
2023/08/18 04:45:52;;;;;;;10.75;6.63;;;16.30;90.20;;;;;;5091554;28;20412;-79
2023/08/18 04:48:19;;;;;;;9.40;6.80;;;16.20;90.20;;;;;;5074804;28;20048;-78
2023/08/18 04:50:45;;;;;;;8.70;7.45;;;16.30;90.20;;;;;;5090848;28;20093;-80
2023/08/18 04:53:10;;;;;;;7.47;6.50;;;16.30;90.30;;;;;;5074194;28;20036;-82
2023/08/18 04:55:36;;;;;;;8.05;6.82;;;16.30;90.30;;;;;;5074649;28;20046;-78
2023/08/18 04:58:03;;;;;;;9.95;6.72;;;16.40;90.40;;;;;;5091156;28;20400;-81
2023/08/18 05:00:29;;;;;;;9.13;7.90;;;16.40;90.40;;;;;;5058271;28;20036;-81
2023/08/18 05:02:55;;;;;;;8.77;7.88;;;16.40;90.50;;;;;;5078150;28;20071;-82
2023/08/18 05:05:21;;;;;;;9.00;7.15;;;16.40;90.50;;;;;;5077823;28;20035;-85
2023/08/18 05:07:47;;;;;;;7.00;5.93;;;16.40;90.60;;;;;;5077902;28;20044;-83
2023/08/18 05:10:13;;;;;;;10.27;7.50;;;16.40;90.50;;;;;;5094851;28;20043;-85
2023/08/18 05:12:38;;;;;;;9.75;7.45;;;16.50;90.60;;;;;;5077915;28;20044;-82
2023/08/18 05:15:05;;;;;;;9.32;7.82;;;16.50;90.50;;;;;;5077888;28;20039;-84
2023/08/18 05:17:30;;;;;;;9.75;7.72;;;16.50;90.60;;;;;;5061006;28;20506;-82
2023/08/18 05:19:56;;;;;;;9.05;6.68;;;16.50;90.80;;;;;;5077938;28;20039;-83
2023/08/18 05:22:22;;;;;;;8.10;7.30;;;16.50;90.60;;;;;;5077564;28;20466;-83
2023/08/18 05:24:52;;;;;;;11.00;8.43;;;16.50;90.90;;;;;;5078122;28;20044;-82
2023/08/18 05:27:17;;;;;;;12.13;7.80;;;16.60;90.70;;;;;;5061254;28;20043;-84
2023/08/18 05:29:43;;;;;;;9.00;7.03;;;16.60;90.70;;;;;;5062552;28;20043;-85
2023/08/18 05:32:09;;;;;;;8.93;7.72;;;16.60;90.80;;;;;;5067859;28;20048;-79
2023/08/18 05:34:35;;;;;;;10.68;7.22;;;16.70;90.70;;;;;;5082923;28;20040;-80
2023/08/18 05:37:00;;;;;;;11.63;8.27;;;16.70;90.90;;;;;;5045377;28;20036;-81
2023/08/18 05:39:27;;;;;;;8.85;7.45;;;16.70;90.90;;;;;;5077609;28;20039;-81
2023/08/18 05:41:53;;;;;;;10.63;8.30;;;16.70;90.80;;;;;;5044397;28;20063;-85
2023/08/18 05:44:19;;;;;;;9.95;7.78;;;16.70;91.10;;;;;;5060610;28;20040;-81
2023/08/18 05:46:44;;;;;;;11.00;8.13;;;16.70;91.00;;;;;;5094398;28;20039;-82
2023/08/18 05:49:10;;;;;;;11.95;8.10;;;16.80;91.00;;;;;;5095262;28;20400;-80
2023/08/18 05:51:36;;;;;;;9.02;7.43;;;16.80;91.20;;;;;;5077693;28;20073;-81
2023/08/18 05:54:03;;;;;;;9.43;8.05;;;16.80;91.30;;;;;;5061089;28;20127;-82
2023/08/18 05:56:29;;;;;;;8.60;6.60;;;16.80;91.20;;;;;;5062094;28;20033;-84
2023/08/18 05:58:55;;;;;;;11.25;8.40;;;16.80;91.10;;;;;;5078023;28;20381;-84
2023/08/18 06:01:21;;;;;;;10.75;7.90;;;16.90;91.10;;;;;;5061589;28;20440;-83
2023/08/18 06:03:46;;;;;;;12.00;8.48;;;16.90;91.30;;;;;;5061421;28;20036;-82
2023/08/18 06:06:12;;;;;;;10.88;7.47;;;16.90;91.20;;;;;;5078078;28;20036;-84
2023/08/18 06:08:38;;;;;;;11.05;7.85;;;16.90;91.30;;;;;;5078439;28;20040;-82
2023/08/18 06:11:04;;;;;;;11.48;8.10;;;16.90;91.30;;;;;;5077744;28;20063;-83
2023/08/18 06:13:29;;;;;;;11.40;8.20;;;17.00;91.30;;;;;;5043357;28;20404;-82
2023/08/18 06:15:55;;;;;;;9.82;7.95;;;17.00;91.10;;;;;;5077361;28;20035;-82
2023/08/18 06:18:21;;;;;;;10.05;6.88;;;17.00;91.00;;;;;;5060229;28;20028;-84
2023/08/18 06:20:47;;;;;;;10.90;7.78;;;17.10;91.00;;;;;;5076546;28;20032;-83
2023/08/18 06:23:13;;;;;;;10.60;7.10;;;17.10;91.00;;;;;;5060468;28;20177;-83
2023/08/18 06:25:39;;;;;;;9.85;7.55;;;17.10;90.90;;;;;;5060271;28;20032;-80
2023/08/18 06:28:07;;;;;;;10.02;8.75;;;17.20;90.90;;;;;;5059842;28;20044;-82
2023/08/18 06:30:33;;;;;;;13.57;8.80;;;17.20;90.90;;;;;;5093445;28;20156;-82
2023/08/18 06:32:59;;;;;;;9.77;7.32;;;17.20;90.90;;;;;;5070054;28;20064;-80
2023/08/18 06:35:25;;;;;;;10.90;8.35;;;17.30;90.80;;;;;;5085773;28;20036;-81
2023/08/18 06:37:50;;;;;;;11.20;7.13;;;17.30;90.90;;;;;;5119235;28;20051;-81
2023/08/18 06:40:16;;;;;;;10.75;8.40;;;17.30;90.80;;;;;;5085835;28;20051;-82
2023/08/18 06:42:42;;;;;;;12.32;7.95;;;17.30;90.60;;;;;;5101865;28;20074;-80
2023/08/18 06:45:08;;;;;;;8.98;7.70;;;17.30;90.70;;;;;;5085635;28;20032;-84
2023/08/18 06:47:34;;;;;;;10.00;8.10;;;17.40;90.60;;;;;;5085589;28;20032;-82
2023/08/18 06:50:05;;;;;;;10.48;8.05;;;17.40;90.60;;;;;;5082796;28;20040;-82
2023/08/18 06:52:32;;;;;;;12.90;7.82;;;17.50;90.60;;;;;;5118014;28;20084;-84
2023/08/18 06:54:58;;;;;;;11.95;7.95;;;17.50;90.70;;;;;;5080764;28;20450;-83
2023/08/18 06:57:25;;;;;;;7.55;6.38;;;17.50;90.60;;;;;;5101924;28;20028;-84
2023/08/18 06:59:51;;;;;;;12.38;8.13;;;17.50;90.50;;;;;;5085319;28;20062;-81
2023/08/18 07:02:17;;;;;;;10.75;8.32;;;17.60;90.50;;;;;;5085120;28;20028;-82
2023/08/18 07:04:43;;;;;;;11.00;8.55;;;17.60;90.50;;;;;;5085335;28;20035;-83
2023/08/18 07:07:08;;;;;;;12.32;8.25;;;17.70;90.60;;;;;;5085250;28;20039;-84
2023/08/18 07:09:34;;;;;;;9.98;7.63;;;17.70;90.50;;;;;;5081022;28;20098;-85
2023/08/18 07:12:00;;;;;;;10.40;8.18;;;17.80;90.50;;;;;;5060987;28;20040;-85
2023/08/18 07:14:26;;;;;;;9.73;7.00;;;17.80;90.40;;;;;;5080078;28;20040;-83
2023/08/18 07:16:51;;;;;;;8.05;6.18;;;17.80;90.30;;;;;;5114292;28;20092;-84
2023/08/18 07:19:17;;;;;;;12.52;8.70;;;17.80;90.30;;;;;;5101390;28;20055;-82
2023/08/18 07:21:43;;;;;;;9.73;7.93;;;17.90;90.20;;;;;;5084510;28;20058;-82
2023/08/18 07:24:09;;;;;;;8.77;6.53;;;17.90;90.10;;;;;;5092371;28;20048;-85
2023/08/18 07:26:34;;;;;;;6.22;5.53;;;17.90;90.20;;;;;;5063596;28;20052;-85
2023/08/18 07:29:01;;;;;;;12.95;8.02;;;17.90;90.10;;;;;;5079671;28;20066;-83
2023/08/18 07:31:27;;;;;;;11.13;8.73;;;17.90;90.00;;;;;;5079816;28;20082;-85
2023/08/18 07:33:53;;;;;;;11.75;7.78;;;17.90;90.00;;;;;;5064412;28;20040;-85
2023/08/18 07:36:18;;;;;;;9.82;8.20;;;17.90;90.10;;;;;;5046880;28;20036;-84
2023/08/18 07:38:45;;;;;;;15.80;8.63;;;17.90;90.20;;;;;;5081574;28;20126;-84
2023/08/18 07:41:10;;;;;;;11.93;7.28;;;17.90;90.20;;;;;;5077724;28;20042;-84
2023/08/18 07:43:36;;;;;;;12.73;8.07;;;17.90;90.20;;;;;;5042867;28;20052;-84
2023/08/18 07:46:02;;;;;;;8.73;7.82;;;18.00;90.20;;;;;;5058889;28;20032;-83
2023/08/18 07:48:27;;;;;;;12.63;9.38;;;18.10;90.30;;;;;;5075536;28;20070;-84
2023/08/18 07:50:53;;;;;;;10.80;8.15;;;18.20;90.20;;;;;;5075559;28;20529;-83
2023/08/18 07:53:19;;;;;;;12.80;8.40;;;18.20;90.10;;;;;;5042066;28;20040;-85
2023/08/18 07:55:47;;;;;;;11.80;8.32;;;18.30;89.90;;;;;;5058662;28;20040;-83
2023/08/18 07:58:13;;;;;;;11.13;7.72;;;18.40;89.90;;;;;;5075398;28;20036;-84
2023/08/18 08:00:44;;;;;;;11.32;7.65;;;18.40;89.70;;;;;;5063135;28;20036;-85
2023/08/18 08:03:09;;;;;;;10.23;7.03;;;18.40;89.70;;;;;;5059011;28;20042;-84
2023/08/18 08:05:35;;;;;;;8.25;6.68;;;18.40;89.70;;;;;;5075235;28;20127;-84
2023/08/18 08:08:01;;;;;;;10.80;6.13;;;18.50;89.60;;;;;;5058690;28;20044;-84
2023/08/18 08:10:27;;;;;;;12.98;7.30;;;18.50;89.50;;;;;;5041631;28;20044;-85
2023/08/18 08:12:52;;;;;;;7.60;6.78;;;18.60;89.50;;;;;;5091536;28;20093;-83
2023/08/18 08:15:18;;;;;;;9.23;6.80;;;18.70;89.40;;;;;;5074892;28;20045;-82
2023/08/18 08:17:44;;;;;;;6.82;6.07;;;18.70;89.30;;;;;;5058632;28;20032;-83
2023/08/18 08:20:16;;;;;;;8.15;5.95;;;18.80;89.30;;;;;;5059093;28;20032;-82
2023/08/18 08:22:48;;;;;;;9.13;6.82;;;18.80;89.10;;;;;;5075256;28;20036;-84
2023/08/18 08:25:14;;;;;;;9.10;6.28;;;18.80;89.20;;;;;;5092178;28;20392;-84
2023/08/18 08:27:40;;;;;;;11.63;7.53;;;18.80;89.20;;;;;;5074784;28;20040;-85
2023/08/18 08:30:08;;;;;;;9.93;6.90;;;18.90;89.20;;;;;;5092641;28;20046;-84
2023/08/18 08:32:34;;;;;;;9.63;6.38;;;18.90;89.10;;;;;;5076222;28;20396;-84
2023/08/18 08:35:00;;;;;;;10.20;6.18;;;18.90;89.10;;;;;;5058418;28;20036;-84
2023/08/18 08:37:25;;;;;;;11.75;5.78;;;19.00;89.00;;;;;;5078191;28;20042;-84
2023/08/18 08:39:51;;;;;;;13.48;6.53;;;19.00;89.00;;;;;;5062357;28;20082;-85
2023/08/18 08:42:17;;;;;;;8.82;5.93;;;19.00;89.00;;;;;;5078642;28;20051;-85
2023/08/18 08:44:43;;;;;;;7.63;6.15;;;19.00;89.00;;;;;;5078696;28;20044;-84
2023/08/18 08:47:10;;;;;;;12.23;7.00;;;18.90;88.80;;;;;;5061894;28;20488;-85
2023/08/18 08:49:39;;;;;;;6.70;5.55;;;19.00;88.90;;;;;;5078626;28;20079;-85
2023/08/18 08:52:10;;;;;;;8.07;6.07;;;19.00;89.00;;;;;;5078649;28;20568;-86
2023/08/18 08:54:49;;;;;;;9.75;6.03;;;19.10;89.00;;;;;;5078226;28;20092;-83
2023/08/18 08:57:17;;;;;;;8.32;6.05;;;19.10;88.70;;;;;;5094877;28;20123;-84
2023/08/18 08:59:43;;;;;;;10.18;6.78;;;19.20;88.80;;;;;;5078095;28;20097;-83
2023/08/18 09:02:09;;;;;;;10.55;6.43;;;19.20;88.70;;;;;;5061702;28;20044;-84
2023/08/18 09:04:35;;;;;;;9.07;6.20;;;19.20;88.70;;;;;;5094923;28;20059;-81
2023/08/18 09:07:00;;;;;;;8.55;6.32;;;19.20;88.50;;;;;;5061305;28;20048;-83
2023/08/18 09:09:26;;;;;;;8.57;6.10;;;19.20;88.50;;;;;;5044593;28;20040;-81
2023/08/18 09:11:59;;;;;;;10.18;5.18;;;19.20;88.50;;;;;;5044624;28;20040;-80
2023/08/18 09:14:27;;;;;;;8.25;6.10;;;19.30;88.50;;;;;;5077969;28;20044;-81
2023/08/18 09:16:53;;;;;;;10.70;6.88;;;19.30;88.50;;;;;;5077870;28;20043;-80
2023/08/18 09:19:18;;;;;;;8.65;6.32;;;19.40;88.40;;;;;;5094653;28;20119;-81
2023/08/18 09:21:44;;;;;;;9.55;6.03;;;19.40;88.10;;;;;;5077597;28;20130;-81
2023/08/18 09:24:10;;;;;;;8.32;5.65;;;19.40;88.10;;;;;;5044412;28;20040;-82
2023/08/18 09:26:35;;;;;;;6.93;5.63;;;19.50;88.10;;;;;;5077540;28;20067;-83
2023/08/18 09:29:03;;;;;;;9.13;5.50;;;19.50;88.10;;;;;;5077454;28;20044;-82
2023/08/18 09:31:29;;;;;;;8.77;5.57;;;19.60;87.90;;;;;;5077426;28;20078;-81
2023/08/18 09:33:55;;;;;;;8.35;6.25;;;19.60;87.90;;;;;;5077855;28;20044;-80
2023/08/18 09:36:21;;;;;;;8.82;6.43;;;19.70;87.70;;;;;;5077722;28;20131;-80
2023/08/18 09:38:46;;;;;;;8.25;5.43;;;19.70;87.70;;;;;;5060737;28;20032;-83
2023/08/18 09:41:13;;;;;;;12.25;6.50;;;19.80;87.50;;;;;;5077909;28;20075;-84
2023/08/18 09:43:41;;;;;;;6.15;4.90;;;19.90;87.10;;;;;;5060995;28;20048;-84
2023/08/18 09:46:08;;;;;;;7.15;5.57;;;19.80;86.90;;;;;;5077656;28;20044;-80
2023/08/18 09:48:38;;;;;;;8.10;5.90;;;19.90;86.90;;;;;;5076921;28;20040;-79
2023/08/18 09:51:09;;;;;;;8.57;5.40;;;20.00;86.80;;;;;;5077338;28;20044;-80
2023/08/18 09:53:36;;;;;;;7.70;5.50;;;20.20;86.90;;;;;;5093769;28;20086;-81
2023/08/18 09:56:13;;;;;;;7.07;5.35;;;20.30;86.50;;;;;;5077034;28;20076;-79
2023/08/18 09:58:56;;;;;;;8.02;5.65;;;20.40;86.40;;;;;;5076977;28;20081;-81
2023/08/18 10:01:25;;;;;;;7.22;5.63;;;20.50;86.10;;;;;;5077386;28;20042;-81
2023/08/18 10:03:54;;;;;;;8.23;5.75;;;20.50;85.80;;;;;;5076738;28;20160;-82
2023/08/18 10:06:21;;;;;;;8.50;5.90;;;20.50;85.50;;;;;;5077108;28;20036;-85
2023/08/18 10:08:47;;;;;;;8.57;5.57;;;20.50;85.60;;;;;;5076751;28;20036;-83
2023/08/18 10:11:14;;;;;;;7.82;5.80;;;20.50;85.50;;;;;;5093693;28;20047;-83
2023/08/18 10:13:40;;;;;;;9.27;5.93;;;20.60;85.50;;;;;;5093619;28;20047;-82
2023/08/18 10:16:06;;;;;;;8.57;5.95;;;20.70;85.30;;;;;;5060091;28;20077;-79
2023/08/18 10:18:33;;;;;;;11.23;6.55;;;20.80;85.30;;;;;;5059803;28;20039;-79
2023/08/18 10:20:59;;;;;;;9.32;6.47;;;20.70;84.80;;;;;;5076469;28;20047;-82
2023/08/18 10:23:29;;;;;;;9.05;6.38;;;20.70;85.00;;;;;;5043170;28;20565;-82
2023/08/18 10:25:55;;;;;;;10.70;6.45;;;20.70;85.10;;;;;;5093324;28;20056;-81
2023/08/18 10:28:26;;;;;;;11.02;7.38;;;20.80;85.10;;;;;;5076275;28;20040;-82
2023/08/18 10:31:04;;;;;;;11.43;6.70;;;20.80;84.70;;;;;;5093260;28;20051;-81
2023/08/18 10:33:45;;;;;;;9.48;6.82;;;20.90;84.60;;;;;;5076259;28;20051;-82
2023/08/18 10:36:21;;;;;;;12.43;7.82;;;21.10;84.70;;;;;;5076789;28;20036;-83
2023/08/18 10:38:47;;;;;;;8.57;7.45;;;21.20;84.60;;;;;;5076293;28;20074;-81
2023/08/18 10:41:13;;;;;;;10.32;7.28;;;21.20;84.20;;;;;;5076934;28;20075;-82
2023/08/18 10:43:47;;;;;;;10.85;7.57;;;21.20;83.60;;;;;;5045203;28;20099;-82
2023/08/18 10:46:13;;;;;;;10.50;7.15;;;21.20;83.90;;;;;;5099900;28;20048;-80
2023/08/18 10:48:39;;;;;;;10.65;7.55;;;21.20;83.80;;;;;;5093139;28;20071;-81
2023/08/18 10:51:05;;;;;;;11.45;7.95;;;21.30;83.90;;;;;;5104365;28;20044;-80
2023/08/18 10:53:36;;;;;;;11.93;7.38;;;21.40;83.80;;;;;;5076203;28;20496;-83
2023/08/18 10:56:04;;;;;;;11.48;7.35;;;21.40;83.60;;;;;;5092660;28;20043;-80
2023/08/18 10:58:31;;;;;;;12.45;7.25;;;21.50;83.80;;;;;;5059011;28;20047;-83
2023/08/18 11:00:57;;;;;;;13.13;8.00;;;21.70;83.60;;;;;;5075769;28;20051;-82
2023/08/18 11:03:24;;;;;;;13.10;8.95;;;21.90;83.50;;;;;;5059217;28;20044;-81
2023/08/18 11:05:50;;;;;;;14.18;7.18;;;21.90;83.20;;;;;;5075844;28;20040;-84
2023/08/18 11:08:15;;;;;;;13.02;8.27;;;21.90;83.20;;;;;;5075896;28;20040;-82
2023/08/18 11:10:42;;;;;;;13.57;8.55;;;21.90;82.90;;;;;;5092491;28;20074;-80
2023/08/18 11:13:23;;;;;;;12.50;9.02;;;21.80;82.80;;;;;;5075705;28;20113;-86
2023/08/18 11:15:50;;;;;;;13.95;9.05;;;21.80;82.70;;;;;;5092974;28;20406;-81
2023/08/18 11:18:16;;;;;;;13.55;8.63;;;21.70;82.80;;;;;;5059235;28;20434;-83
2023/08/18 11:20:43;;;;;;;17.17;8.52;;;21.70;82.70;;;;;;5076052;28;20040;-82
2023/08/18 11:23:09;;;;;;;17.83;8.88;;;21.70;83.00;;;;;;5059022;28;20054;-82
2023/08/18 11:25:36;;;;;;;13.60;7.78;;;21.80;83.10;;;;;;5075630;28;20377;-82
2023/08/18 11:28:02;;;;;;;15.98;9.77;;;21.80;82.90;;;;;;5075259;28;20106;-84
2023/08/18 11:30:28;;;;;;;15.57;9.60;;;21.90;83.10;;;;;;5056625;28;20530;-82
2023/08/18 11:32:54;;;;;;;19.13;9.35;;;21.90;83.10;;;;;;5061325;28;20032;-82
2023/08/18 11:35:21;;;;;;;13.48;9.02;;;22.00;83.10;;;;;;5075328;28;20040;-83
2023/08/18 11:37:49;;;;;;;15.88;9.10;;;22.00;83.00;;;;;;5075455;28;20389;-81
2023/08/18 11:40:18;;;;;;;15.95;9.63;;;22.00;82.90;;;;;;5075175;28;20044;-81
2023/08/18 11:42:49;;;;;;;15.93;10.10;;;22.00;82.70;;;;;;5075481;28;20091;-81
2023/08/18 11:45:18;;;;;;;15.50;9.43;;;21.90;82.80;;;;;;5092264;28;20408;-82
2023/08/18 11:48:00;;;;;;;13.82;9.55;;;21.90;82.50;;;;;;5084144;28;20041;-82
2023/08/18 11:50:40;;;;;;;19.65;9.50;;;21.90;82.40;;;;;;5057841;28;20067;-84
2023/08/18 11:53:08;;;;;;;14.05;9.60;;;21.90;82.70;;;;;;5072619;28;20128;-82
2023/08/18 11:55:41;;;;;;;16.00;9.32;;;22.00;82.80;;;;;;5039197;28;20037;-81
2023/08/18 11:58:10;;;;;;;13.02;9.43;;;22.00;82.80;;;;;;5055725;28;20079;-82
2023/08/18 12:00:38;;;;;;;10.80;9.13;;;22.00;82.40;;;;;;5039584;28;20477;-82
2023/08/18 12:03:05;;;;;;;14.48;9.80;;;22.00;82.40;;;;;;5073334;28;20048;-82
2023/08/18 12:05:31;;;;;;;13.40;8.57;;;22.10;82.30;;;;;;5057294;28;20108;-83
2023/08/18 12:08:00;;;;;;;13.43;9.88;;;22.30;82.60;;;;;;5056421;28;20048;-83
2023/08/18 12:10:26;;;;;;;12.15;9.55;;;22.40;82.10;;;;;;5056990;28;20048;-83
2023/08/18 12:12:57;;;;;;;13.30;10.05;;;22.50;82.00;;;;;;5062959;28;20045;-83
2023/08/18 12:15:27;;;;;;;12.82;9.50;;;22.50;81.90;;;;;;5046786;28;20048;-81
2023/08/18 12:17:53;;;;;;;13.65;11.30;;;22.60;81.60;;;;;;5044734;28;20127;-80
2023/08/18 12:20:20;;;;;;;12.65;9.40;;;22.40;80.60;;;;;;5061739;28;20079;-83
2023/08/18 12:22:51;;;;;;;12.57;10.60;;;22.50;81.00;;;;;;5078075;28;20044;-84
2023/08/18 12:25:18;;;;;;;11.30;9.98;;;22.50;81.10;;;;;;5059822;28;20068;-82
2023/08/18 12:27:45;;;;;;;10.52;9.40;;;22.70;81.20;;;;;;5059072;28;20044;-82
2023/08/18 12:30:12;;;;;;;11.38;9.73;;;22.60;81.00;;;;;;5065793;28;20127;-81
2023/08/18 12:32:37;;;;;;;11.90;9.60;;;22.80;81.00;;;;;;5053814;28;20020;-85
2023/08/18 12:35:04;;;;;;;13.45;9.52;;;22.90;80.90;;;;;;5031875;28;20237;-83
2023/08/18 12:37:30;;;;;;;11.27;10.23;;;23.00;80.60;;;;;;5036494;28;20040;-82
2023/08/18 12:39:57;;;;;;;11.00;9.75;;;23.00;80.20;;;;;;5079852;28;20084;-82
2023/08/18 12:42:23;;;;;;;11.57;10.35;;;23.00;79.70;;;;;;5066145;28;20492;-82